Time;durP1;ratioP1;P1;durP2;ratioP2;P2;SDS_P1;SDS_P2;PMS_P1;PMS_P2;Temp;Humidity;BMP_temperature;BMP_pressure;BME280_temperature;BME280_humidity;BME280_pressure;Samples;Min_cycle;Max_cycle;Signal;HPM_P1;HPM_P2
2022/12/19 05:22:34;;;;;;;14.30;8.77;;;;;;;-2.07;100.00;101139.78;5109353;27;21076;-73
2022/12/19 05:24:59;;;;;;;23.98;9.45;;;;;;;-2.02;100.00;101133.44;5109486;28;20031;-73
2022/12/19 05:27:25;;;;;;;24.17;10.32;;;;;;;-2.00;100.00;101126.38;5090997;28;20063;-73
2022/12/19 05:29:50;;;;;;;17.35;9.05;;;;;;;-1.94;100.00;101133.91;5109490;28;20510;-73
2022/12/19 05:32:15;;;;;;;34.40;12.70;;;;;;;-1.97;100.00;101128.81;5109573;28;20047;-73
2022/12/19 05:34:41;;;;;;;20.85;8.98;;;;;;;-1.92;100.00;101134.69;5109371;28;20039;-72
2022/12/19 05:37:06;;;;;;;22.33;10.70;;;;;;;-1.87;100.00;101131.88;5109286;28;20036;-72
2022/12/19 05:39:31;;;;;;;22.88;11.68;;;;;;;-1.88;100.00;101140.63;5109298;28;20042;-72
2022/12/19 05:41:57;;;;;;;23.73;12.10;;;;;;;-1.86;100.00;101133.56;5108866;28;20114;-72
2022/12/19 05:44:22;;;;;;;28.65;12.90;;;;;;;-1.86;100.00;101138.78;5109024;28;20493;-73
2022/12/19 05:46:48;;;;;;;27.60;11.15;;;;;;;-1.80;100.00;101140.25;5108910;28;20123;-72
2022/12/19 05:49:16;;;;;;;29.90;12.88;;;;;;;-1.79;100.00;101148.00;5108940;28;20489;-71
2022/12/19 05:51:41;;;;;;;17.05;9.68;;;;;;;-1.78;100.00;101143.63;5108463;28;20050;-72
2022/12/19 05:54:07;;;;;;;25.58;12.25;;;;;;;-1.73;100.00;101146.88;5107542;28;20044;-73
2022/12/19 05:56:32;;;;;;;20.02;11.15;;;;;;;-1.72;100.00;101135.50;5108775;28;20028;-72
2022/12/19 05:58:58;;;;;;;27.73;12.27;;;;;;;-1.70;100.00;101133.66;5108756;28;20069;-72
2022/12/19 06:01:25;;;;;;;28.77;12.50;;;;;;;-1.76;100.00;101127.00;5107139;28;20126;-72
2022/12/19 06:03:51;;;;;;;25.35;12.50;;;;;;;-1.69;100.00;101130.16;5108583;28;20036;-72
2022/12/19 06:06:19;;;;;;;30.48;12.00;;;;;;;-1.61;100.00;101142.84;5108537;28;20492;-72
2022/12/19 06:08:45;;;;;;;26.92;11.98;;;;;;;-1.59;100.00;101131.38;5108659;28;20063;-72
2022/12/19 06:11:13;;;;;;;26.10;13.52;;;;;;;-1.62;100.00;101128.09;5108151;28;20032;-72
2022/12/19 06:13:39;;;;;;;29.00;13.18;;;;;;;-1.58;100.00;101127.84;5107297;28;20040;-72
2022/12/19 06:16:07;;;;;;;24.88;11.57;;;;;;;-1.55;100.00;101121.66;5108424;28;20400;-72
2022/12/19 06:18:33;;;;;;;27.63;12.05;;;;;;;-1.52;100.00;101127.56;5108285;28;20377;-72
2022/12/19 06:21:00;;;;;;;29.15;14.02;;;;;;;-1.50;100.00;101124.84;5107957;28;20114;-72
2022/12/19 06:23:26;;;;;;;21.88;11.77;;;;;;;-1.50;100.00;101124.84;5108305;28;20446;-72
2022/12/19 06:25:55;;;;;;;33.30;13.02;;;;;;;-1.45;100.00;101139.41;5108185;28;20027;-73
2022/12/19 06:28:20;;;;;;;34.30;12.43;;;;;;;-1.45;100.00;101144.63;5108160;28;20032;-72
2022/12/19 06:30:46;;;;;;;26.08;10.60;;;;;;;-1.41;100.00;101151.41;5107787;28;20397;-72
2022/12/19 06:33:11;;;;;;;22.80;10.80;;;;;;;-1.41;100.00;101148.78;5098669;28;20037;-72
2022/12/19 06:35:37;;;;;;;30.17;13.48;;;;;;;-1.38;100.00;101146.00;5093439;28;20076;-72
2022/12/19 06:38:02;;;;;;;28.98;12.55;;;;;;;-1.39;100.00;101146.09;5094649;28;20101;-71
2022/12/19 06:43:11;;;;;;;18.05;11.27;;;;;;;-1.34;100.00;101141.50;5094590;28;20040;-72
2022/12/19 06:45:37;;;;;;;24.02;12.90;;;;;;;-1.28;100.00;101142.97;5094396;28;20607;-72
2022/12/19 06:48:02;;;;;;;29.77;12.55;;;;;;;-1.25;100.00;101140.19;5094539;28;20040;-72
2022/12/19 06:50:28;;;;;;;26.50;12.25;;;;;;;-1.22;100.00;101133.03;5093972;28;20040;-72
2022/12/19 06:52:53;;;;;;;24.90;11.23;;;;;;;-1.19;100.00;101134.66;5094401;28;20028;-72
2022/12/19 06:55:18;;;;;;;25.58;12.70;;;;;;;-1.18;100.00;101125.88;5076032;28;20036;-72
2022/12/19 06:57:45;;;;;;;35.35;13.25;;;;;;;-1.14;100.00;101116.97;5094255;28;20067;-72
2022/12/19 07:00:14;;;;;;;34.65;14.93;;;;;;;-1.13;100.00;101110.81;5093915;28;20089;-72
2022/12/19 07:02:50;;;;;;;28.05;11.90;;;;;;;-1.20;100.00;101101.59;5094077;28;20046;-72
2022/12/19 07:05:16;;;;;;;30.83;13.73;;;;;;;-1.20;100.00;101109.44;5094109;28;20115;-72
2022/12/19 07:07:42;;;;;;;27.80;12.73;;;;;;;-1.19;100.00;101101.50;5094053;28;20583;-72
2022/12/19 07:10:08;;;;;;;33.20;13.25;;;;;;;-1.15;100.00;101104.81;5093762;28;20051;-72
2022/12/19 07:12:34;;;;;;;32.80;11.90;;;;;;;-1.21;100.00;101103.34;5092618;28;20131;-72
2022/12/19 07:15:00;;;;;;;29.00;12.98;;;;;;;-1.18;100.00;101115.41;5093941;28;20519;-71
2022/12/19 07:17:27;;;;;;;36.00;12.90;;;;;;;-1.19;100.00;101121.56;5093739;28;20397;-72
2022/12/19 07:19:54;;;;;;;21.10;11.02;;;;;;;-1.22;100.00;101114.75;5093568;28;20036;-73
2022/12/19 07:22:21;;;;;;;26.07;10.67;;;;;;;-1.14;100.00;101136.13;5093423;28;20480;-72
2022/12/19 07:24:46;;;;;;;39.17;14.02;;;;;;;-1.13;100.00;101134.34;5092453;28;20050;-72
2022/12/19 07:27:12;;;;;;;23.75;13.18;;;;;;;-1.13;100.00;101135.19;5093640;28;20052;-71
2022/12/19 07:29:37;;;;;;;25.60;12.95;;;;;;;-1.08;100.00;101140.19;5093547;28;20036;-72
2022/12/19 07:32:03;;;;;;;23.17;11.05;;;;;;;-1.08;100.00;101144.59;5093051;28;20032;-72
2022/12/19 07:34:28;;;;;;;34.28;12.20;;;;;;;-1.03;100.00;101151.28;5093453;28;20067;-72
2022/12/19 07:36:54;;;;;;;22.45;12.88;;;;;;;-1.03;100.00;101140.81;5093442;28;20032;-72
2022/12/19 07:39:20;;;;;;;25.35;11.98;;;;;;;-0.99;100.00;101150.19;5092098;28;20489;-71
2022/12/19 07:41:46;;;;;;;25.90;13.13;;;;;;;-0.99;100.00;101165.03;5090851;28;20400;-72
2022/12/19 07:44:12;;;;;;;32.05;13.93;;;;;;;-0.98;100.00;101148.41;5082561;28;20060;-72
2022/12/19 07:46:38;;;;;;;32.67;13.25;;;;;;;-0.89;100.00;101148.81;5080148;28;20031;-72
2022/12/19 07:49:03;;;;;;;34.70;12.52;;;;;;;-0.86;100.00;101147.78;5081879;28;20113;-72
2022/12/19 07:51:28;;;;;;;23.13;12.25;;;;;;;-0.91;100.00;101132.34;5082679;28;20032;-72
2022/12/19 07:53:54;;;;;;;29.88;13.43;;;;;;;-0.83;100.00;101138.03;5081681;28;20047;-72
2022/12/19 07:56:19;;;;;;;28.08;14.18;;;;;;;-0.85;100.00;101129.44;5083498;28;20032;-72
2022/12/19 07:58:45;;;;;;;30.63;11.95;;;;;;;-0.78;100.00;101144.78;5081141;28;20270;-72
2022/12/19 08:01:13;;;;;;;26.73;11.95;;;;;;;-0.75;100.00;101136.78;5081595;28;20016;-72
2022/12/19 08:03:38;;;;;;;23.38;11.85;;;;;;;-0.75;100.00;101148.09;5083456;28;20370;-72
2022/12/19 08:06:06;;;;;;;26.67;12.95;;;;;;;-0.69;100.00;101155.63;5081803;28;20097;-72
2022/12/19 08:08:32;;;;;;;26.30;12.55;;;;;;;-0.64;100.00;101158.03;5076191;28;20044;-71
2022/12/19 08:11:18;;;;;;;31.23;14.32;;;;;;;-0.62;100.00;101156.16;5072186;28;20040;-71
2022/12/19 08:13:44;;;;;;;31.25;13.00;;;;;;;-0.55;100.00;101153.13;5073398;28;20642;-71
2022/12/19 08:16:09;;;;;;;31.95;13.77;;;;;;;-0.49;100.00;101133.66;5073234;28;20095;-71
2022/12/19 08:18:34;;;;;;;34.40;14.00;;;;;;;-0.44;100.00;101133.41;5072319;28;20074;-72
2022/12/19 08:21:00;;;;;;;33.25;14.45;;;;;;;-0.42;100.00;101139.41;5071943;28;20054;-72
2022/12/19 08:23:25;;;;;;;26.08;12.85;;;;;;;-0.40;100.00;101135.78;5072310;28;20400;-71
2022/12/19 08:26:06;;;;;;;32.55;13.13;;;;;;;-0.34;100.00;101145.91;5072304;28;20037;-72
2022/12/19 08:28:33;;;;;;;31.35;14.15;;;;;;;-0.29;100.00;101151.75;5072252;28;20044;-72
2022/12/19 08:31:13;;;;;;;37.15;14.93;;;;;;;-0.23;100.00;101153.22;5070525;28;20039;-72
2022/12/19 08:33:39;;;;;;;26.42;13.10;;;;;;;-0.21;100.00;101143.50;5072226;28;20041;-72
2022/12/19 08:36:06;;;;;;;26.80;11.93;;;;;;;-0.20;100.00;101124.22;5070685;28;20051;-72
2022/12/19 08:38:33;;;;;;;26.23;13.60;;;;;;;-0.11;100.00;101128.13;5072067;28;20539;-73
2022/12/19 08:40:58;;;;;;;23.65;12.02;;;;;;;-0.04;100.00;101124.25;5071812;28;20028;-72
2022/12/19 08:43:25;;;;;;;26.90;12.95;;;;;;;0.02;100.00;101126.53;5071952;28;20032;-73
2022/12/19 08:45:50;;;;;;;38.67;15.07;;;;;;;0.09;100.00;101130.50;5071773;28;20039;-72
2022/12/19 08:48:16;;;;;;;31.25;12.35;;;;;;;0.11;100.00;101125.19;5070799;28;20119;-72
2022/12/19 08:50:55;;;;;;;29.70;13.45;;;;;;;0.14;100.00;101123.25;5071526;28;20588;-72
2022/12/19 08:53:22;;;;;;;26.42;11.45;;;;;;;0.15;100.00;101124.94;5071895;28;20094;-72
2022/12/19 08:55:56;;;;;;;32.67;13.50;;;;;;;0.22;100.00;101113.19;5071545;28;20601;-72
2022/12/19 08:58:23;;;;;;;32.80;13.18;;;;;;;0.33;100.00;101114.34;5070626;28;20071;-72
2022/12/19 09:00:48;;;;;;;25.92;11.18;;;;;;;0.42;100.00;101109.44;5071550;28;20062;-72
2022/12/19 09:03:14;;;;;;;30.75;13.00;;;;;;;0.48;100.00;101103.00;5071935;28;20041;-72
2022/12/19 09:05:39;;;;;;;27.75;11.43;;;;;;;0.50;100.00;101106.38;5071921;28;20041;-73
2022/12/19 09:08:05;;;;;;;25.30;12.43;;;;;;;0.60;100.00;101102.28;5071730;28;20044;-72
2022/12/19 09:10:30;;;;;;;30.50;12.68;;;;;;;0.63;100.00;101102.09;5071282;28;20036;-72
2022/12/19 09:12:57;;;;;;;31.38;13.85;;;;;;;0.67;100.00;101103.63;5070306;28;20047;-73
2022/12/19 09:15:23;;;;;;;26.10;11.45;;;;;;;0.71;100.00;101102.50;5071643;28;20072;-71
2022/12/19 09:17:48;;;;;;;29.48;12.57;;;;;;;0.80;100.00;101117.72;5071775;28;20599;-72
2022/12/19 09:20:14;;;;;;;25.38;12.65;;;;;;;0.84;100.00;101112.28;5071285;28;20119;-72
2022/12/19 09:22:39;;;;;;;26.13;12.07;;;;;;;0.88;100.00;101100.66;5071617;28;20040;-72
2022/12/19 09:25:05;;;;;;;29.80;13.18;;;;;;;0.95;100.00;101100.22;5071616;28;20229;-73
2022/12/19 09:27:31;;;;;;;26.95;12.35;;;;;;;1.07;100.00;101096.03;5071462;28;20037;-73
2022/12/19 09:29:56;;;;;;;23.63;10.93;;;;;;;1.10;100.00;101095.81;5070188;28;20531;-72
2022/12/19 09:32:21;;;;;;;23.45;11.05;;;;;;;1.14;100.00;101091.25;5071352;28;20377;-73
2022/12/19 09:34:47;;;;;;;30.98;12.32;;;;;;;1.23;100.00;101091.53;5071543;28;20447;-73
2022/12/19 09:37:12;;;;;;;27.17;12.30;;;;;;;1.29;100.00;101093.78;5071419;28;20036;-72
2022/12/19 09:39:38;;;;;;;27.40;12.77;;;;;;;1.35;100.00;101093.41;5071401;28;20477;-68
2022/12/19 09:42:38;;;;;;;28.80;12.85;;;;;;;1.45;100.00;101095.50;5069991;28;20055;-67
2022/12/19 09:45:16;;;;;;;27.40;13.70;;;;;;;1.49;100.00;101089.94;5068094;28;20052;-69
2022/12/19 09:47:43;;;;;;;28.90;12.15;;;;;;;1.60;100.00;101084.88;5071418;28;20033;-70
2022/12/19 09:50:43;;;;;;;26.13;11.75;;;;;;;1.71;100.00;101080.75;5071210;28;20076;-69
2022/12/19 09:53:20;;;;;;;30.60;13.02;;;;;;;1.74;100.00;101084.00;5071107;28;20646;-69
2022/12/19 09:55:46;;;;;;;25.52;12.75;;;;;;;1.86;100.00;101075.34;5071149;28;20040;-70
2022/12/19 09:58:39;;;;;;;25.98;12.43;;;;;;;2.01;100.00;101081.41;5069757;28;20405;-70
2022/12/19 10:01:14;;;;;;;34.53;13.23;;;;;;;2.18;100.00;101082.97;5071012;28;20181;-69
2022/12/19 10:03:43;;;;;;;30.40;12.65;;;;;;;2.28;100.00;101081.44;5071419;28;20036;-70
2022/12/19 10:06:23;;;;;;;32.45;13.43;;;;;;;2.48;100.00;101079.25;5071143;28;20041;-69
2022/12/19 10:08:50;;;;;;;31.70;12.27;;;;;;;2.55;100.00;101059.53;5073877;28;20028;-69
2022/12/19 10:11:16;;;;;;;26.60;12.27;;;;;;;2.76;97.50;101057.25;5087224;28;20044;-69
2022/12/19 10:13:47;;;;;;;27.75;12.25;;;;;;;2.92;97.39;101056.09;5095146;28;20032;-69
2022/12/19 10:16:20;;;;;;;25.77;11.77;;;;;;;2.90;96.88;101055.34;5095153;28;20047;-69
2022/12/19 10:19:05;;;;;;;27.95;11.82;;;;;;;3.21;95.17;101061.16;5095144;28;20051;-70
2022/12/19 10:21:57;;;;;;;28.05;11.38;;;;;;;3.33;93.42;101059.47;5094565;28;20032;-70
2022/12/19 10:24:55;;;;;;;31.10;12.02;;;;;;;3.39;91.96;101054.63;5095153;28;20392;-70
2022/12/19 10:27:36;;;;;;;28.60;12.95;;;;;;;3.45;92.35;101058.59;5085902;28;20109;-70
2022/12/19 10:30:20;;;;;;;26.25;11.50;;;;;;;3.37;91.93;101058.28;5095628;28;20046;-70
2022/12/19 10:32:58;;;;;;;25.30;11.50;;;;;;;3.37;92.95;101038.06;5095126;28;20060;-70
2022/12/19 10:35:31;;;;;;;31.15;12.38;;;;;;;3.31;93.37;101022.69;5094770;28;20039;-71
2022/12/19 10:38:06;;;;;;;25.55;12.05;;;;;;;3.36;92.73;101017.09;5094691;28;20040;-70
2022/12/19 10:40:35;;;;;;;32.50;12.73;;;;;;;3.28;93.85;101025.56;5094275;28;20047;-71
2022/12/19 10:43:25;;;;;;;25.65;12.40;;;;;;;3.36;93.27;101028.47;5094627;28;20038;-71
2022/12/19 10:45:56;;;;;;;27.77;12.48;;;;;;;3.35;93.71;101026.81;5094577;28;20036;-70
2022/12/19 10:48:22;;;;;;;23.27;11.43;;;;;;;3.37;93.19;101032.78;5094577;28;20032;-70
2022/12/19 10:50:48;;;;;;;27.45;12.45;;;;;;;3.38;92.17;101031.84;5094148;28;20027;-70
2022/12/19 10:53:15;;;;;;;23.25;10.95;;;;;;;3.42;92.26;101028.06;5094575;28;20400;-70
2022/12/19 10:55:51;;;;;;;27.42;11.13;;;;;;;3.48;92.54;101030.25;5094381;28;20048;-70
2022/12/19 10:58:34;;;;;;;27.38;11.65;;;;;;;3.44;91.14;101027.94;5094487;28;20123;-70
2022/12/19 11:01:09;;;;;;;31.88;11.55;;;;;;;3.37;91.04;101019.63;5093927;28;20040;-70
2022/12/19 11:03:35;;;;;;;22.98;11.27;;;;;;;3.44;89.47;101020.03;5094165;28;20500;-70
2022/12/19 11:06:02;;;;;;;22.52;10.90;;;;;;;3.40;91.64;101010.69;5094229;28;20077;-70
2022/12/19 11:08:30;;;;;;;18.60;10.27;;;;;;;3.48;90.98;101005.72;5093901;28;20115;-70
2022/12/19 11:11:05;;;;;;;23.00;10.45;;;;;;;3.61;91.84;101001.25;5093568;28;20576;-70
2022/12/19 11:13:33;;;;;;;17.58;10.25;;;;;;;3.60;91.27;101004.00;5093969;28;20027;-70
2022/12/19 11:16:00;;;;;;;22.05;10.23;;;;;;;3.64;91.16;101010.72;5093968;28;20640;-71
2022/12/19 11:18:34;;;;;;;28.75;12.02;;;;;;;3.62;90.95;101007.34;5093748;28;20111;-70
2022/12/19 11:21:14;;;;;;;26.08;11.27;;;;;;;3.66;90.60;100998.28;5093421;28;20484;-71
2022/12/19 11:23:52;;;;;;;24.63;11.27;;;;;;;3.73;89.95;100999.53;5093835;28;20038;-71
2022/12/19 11:26:26;;;;;;;;;;;;;;;3.74;90.33;100990.66;5094005;28;20032;-71
2022/12/19 11:28:52;;;;;;;20.35;9.77;;;;;;;3.68;90.56;100993.75;5093669;28;19990;-71
2022/12/19 11:31:27;;;;;;;23.45;9.80;;;;;;;3.56;90.03;100966.47;5107689;22;20131;-64
2022/12/19 11:34:00;;;;;;;27.00;11.02;;;;;;;3.54;90.00;100979.78;5051412;28;20398;-63
2022/12/19 11:36:40;;;;;;;22.98;10.35;;;;;;;3.66;91.87;100983.31;5053112;28;20033;-57
2022/12/19 11:39:16;;;;;;;24.00;10.25;;;;;;;3.56;92.03;100995.44;5053015;28;20037;-58
2022/12/19 11:41:48;;;;;;;23.85;10.88;;;;;;;3.62;93.02;100986.28;5057714;28;20033;-61
2022/12/19 11:44:40;;;;;;;22.52;9.27;;;;;;;3.80;92.07;100985.78;5073432;28;20028;-62
2022/12/19 11:47:28;;;;;;;25.55;9.55;;;;;;;4.09;91.00;100978.34;5073248;28;20036;-63
2022/12/19 11:50:00;;;;;;;21.98;10.65;;;;;;;4.57;88.73;100965.09;5072724;28;20221;-61
2022/12/19 11:52:38;;;;;;;21.58;10.32;;;;;;;4.87;88.16;100947.84;5072501;28;20119;-62
2022/12/19 11:55:22;;;;;;;18.15;10.25;;;;;;;5.27;83.94;100942.88;5072771;28;20041;-61
2022/12/19 11:57:47;;;;;;;23.45;11.43;;;;;;;5.65;80.06;100939.81;5072491;28;20567;-64
2022/12/19 12:00:19;;;;;;;22.45;10.80;;;;;;;5.38;81.51;100944.69;5072206;28;20052;-62
2022/12/19 12:02:50;;;;;;;21.58;9.55;;;;;;;5.34;79.76;100948.53;5072271;28;20105;-60
2022/12/19 12:05:34;;;;;;;19.35;10.60;;;;;;;5.41;79.99;100944.41;5072413;28;20543;-62
2022/12/19 12:08:30;;;;;;;20.95;10.07;;;;;;;5.23;82.05;100944.13;5072361;28;20048;-64
2022/12/19 12:11:19;;;;;;;25.13;11.27;;;;;;;5.26;82.34;100935.09;5071765;28;20063;-60
2022/12/19 12:14:05;;;;;;;22.60;10.85;;;;;;;5.16;83.49;100935.00;5061652;28;20040;-64
2022/12/19 12:16:45;;;;;;;25.80;10.73;;;;;;;5.05;83.67;100927.91;5072250;28;20094;-60
2022/12/19 12:19:23;;;;;;;25.40;10.80;;;;;;;4.89;83.56;100927.44;5072172;28;20032;-64
2022/12/19 12:22:17;;;;;;;22.13;10.02;;;;;;;4.87;84.99;100924.91;5071707;28;20075;-63
2022/12/19 12:25:02;;;;;;;21.27;11.32;;;;;;;4.80;86.06;100920.22;5071923;28;20115;-64
2022/12/19 12:27:43;;;;;;;22.58;11.00;;;;;;;4.69;86.40;100917.59;5072042;28;20082;-64
2022/12/19 12:30:18;;;;;;;19.10;11.48;;;;;;;4.48;86.72;100913.00;5071639;28;20036;-63
2022/12/19 12:32:57;;;;;;;19.25;10.52;;;;;;;4.57;87.38;100912.31;5070342;28;20060;-63
2022/12/19 12:35:38;;;;;;;20.98;10.85;;;;;;;4.52;87.77;100909.19;5072265;28;20559;-60
2022/12/19 12:38:15;;;;;;;22.38;10.27;;;;;;;4.52;87.74;100914.47;5072554;28;20040;-61
2022/12/19 12:42:02;;;;;;;21.17;10.75;;;;;;;4.55;87.24;100918.66;5071438;28;20047;-62
2022/12/19 12:44:11;;;;;;;22.55;9.65;;;;;;;4.58;87.59;100916.63;5062927;28;20124;-62
2022/12/19 12:46:48;;;;;;;25.10;10.63;;;;;;;4.54;88.38;100915.19;5061387;28;20056;-62
2022/12/19 12:49:38;;;;;;;22.05;9.70;;;;;;;4.55;89.18;100916.00;5062373;28;20036;-63
2022/12/19 12:52:08;;;;;;;20.80;10.95;;;;;;;4.43;90.04;100909.88;5061245;28;20090;-62
2022/12/19 12:54:38;;;;;;;22.38;10.55;;;;;;;4.45;90.50;100912.41;5076011;28;20114;-62
2022/12/19 12:57:04;;;;;;;27.15;11.27;;;;;;;4.50;90.98;100915.53;5060720;28;20034;-64
2022/12/19 12:59:30;;;;;;;22.33;11.18;;;;;;;4.54;90.47;100920.44;5060058;28;20067;-62
2022/12/19 13:01:59;;;;;;;22.20;9.70;;;;;;;4.42;90.71;100910.84;5060933;28;20052;-63
2022/12/19 13:04:26;;;;;;;22.50;10.80;;;;;;;4.32;91.08;100916.00;5062149;28;20044;-63
2022/12/19 13:06:51;;;;;;;23.13;10.55;;;;;;;4.38;91.36;100916.47;5060617;28;20041;-63
2022/12/19 13:09:25;;;;;;;23.45;10.88;;;;;;;4.25;91.78;100924.50;5062435;28;20033;-63
2022/12/19 13:14:49;;;;;;;23.02;10.82;;;;;;;4.15;91.61;100913.78;5059920;28;20061;-61
2022/12/19 13:17:23;;;;;;;25.65;11.50;;;;;;;4.21;91.64;100907.19;5059767;28;20040;-62
2022/12/19 13:19:53;;;;;;;18.02;9.65;;;;;;;4.19;91.81;100906.50;5062194;28;20033;-62
2022/12/19 13:22:27;;;;;;;23.65;10.15;;;;;;;4.20;91.62;100908.16;5061027;28;20032;-63
2022/12/19 13:24:55;;;;;;;28.25;11.10;;;;;;;4.06;92.34;100906.56;5061944;28;20087;-63
2022/12/19 13:27:21;;;;;;;24.58;11.10;;;;;;;3.98;93.32;100909.78;5068872;28;20542;-63
2022/12/19 13:29:58;;;;;;;21.10;10.77;;;;;;;4.06;92.84;100917.13;5059851;28;20029;-62
2022/12/19 13:32:25;;;;;;;21.25;9.77;;;;;;;4.03;94.02;100915.53;5059242;28;20405;-63
2022/12/19 13:35:15;;;;;;;20.98;10.52;;;;;;;4.01;93.06;100913.97;5061552;28;20024;-63
2022/12/19 13:38:00;;;;;;;15.90;8.55;;;;;;;4.01;92.35;100911.34;5053869;28;20053;-63
2022/12/19 13:40:31;;;;;;;23.17;10.10;;;;;;;4.00;93.08;100917.56;5061929;28;20381;-63
2022/12/19 13:46:16;;;;;;;;;;;;;;;3.95;92.48;100919.72;5063669;28;20025;-62
2022/12/19 13:48:48;;;;;;;14.73;8.20;;;;;;;4.02;92.25;100921.75;5063795;28;19979;-62
2022/12/19 13:51:13;;;;;;;26.33;10.13;;;;;;;4.04;92.78;100934.81;5072406;28;20041;-62
2022/12/19 13:53:41;;;;;;;16.70;8.88;;;;;;;4.03;93.16;100931.34;5074922;28;20110;-63
2022/12/19 13:56:16;;;;;;;20.90;9.32;;;;;;;4.00;94.32;100925.50;5075043;28;20429;-62
2022/12/19 13:58:56;;;;;;;21.52;9.45;;;;;;;3.96;93.76;100922.22;5075216;28;20036;-63
2022/12/19 14:01:34;;;;;;;18.27;10.55;;;;;;;3.96;94.04;100927.50;5074343;28;20029;-62
2022/12/19 14:04:07;;;;;;;16.23;9.05;;;;;;;3.95;93.95;100931.09;5090492;28;20454;-61
2022/12/19 14:06:44;;;;;;;18.55;10.13;;;;;;;3.97;95.31;100929.16;5074712;28;20485;-62
2022/12/19 14:09:24;;;;;;;20.90;10.85;;;;;;;3.91;96.08;100934.06;5074493;28;20477;-62
2022/12/19 14:11:50;;;;;;;21.30;10.65;;;;;;;3.88;96.25;100929.03;5074087;28;20124;-61
2022/12/19 14:17:12;;;;;;;23.17;13.10;;;;;;;3.86;95.55;100925.69;5073175;28;20032;-62
2022/12/19 14:19:41;;;;;;;25.60;11.60;;;;;;;3.78;96.41;100923.59;5074562;28;20048;-62
2022/12/19 14:22:20;;;;;;;23.88;13.15;;;;;;;3.72;96.34;100914.34;5073936;28;20110;-61
2022/12/19 14:24:57;;;;;;;28.92;11.88;;;;;;;3.71;95.92;100922.34;5074656;28;20094;-62
2022/12/19 14:27:27;;;;;;;25.52;12.57;;;;;;;3.69;95.88;100919.84;5074345;28;20494;-63
2022/12/19 14:29:53;;;;;;;21.85;10.80;;;;;;;3.67;96.51;100920.91;5074514;28;20461;-63
2022/12/19 14:32:19;;;;;;;21.95;12.75;;;;;;;3.68;97.35;100912.91;5073828;28;20037;-62
2022/12/19 14:34:47;;;;;;;24.65;12.13;;;;;;;3.65;97.61;100917.53;5072999;28;20036;-62
2022/12/19 14:37:30;;;;;;;;;;;;;;;3.62;97.75;100915.97;5074526;28;20044;-62
2022/12/19 14:40:29;;;;;;;26.85;12.85;;;;;;;3.63;98.36;100912.38;5073899;28;19912;-62
2022/12/19 14:45:51;;;;;;;24.60;12.27;;;;;;;3.47;99.09;100904.78;5072972;28;20036;-62
2022/12/19 14:48:53;;;;;;;26.83;13.63;;;;;;;3.46;99.71;100912.78;5074278;28;20047;-62
2022/12/19 14:51:32;;;;;;;34.22;14.90;;;;;;;3.44;100.00;100912.03;5073414;28;20366;-62
2022/12/19 14:54:08;;;;;;;33.42;14.25;;;;;;;3.39;100.00;100903.63;5073357;28;20115;-62
2022/12/19 14:56:46;;;;;;;26.80;12.35;;;;;;;3.24;100.00;100895.88;5074042;28;20485;-62
2022/12/19 14:59:34;;;;;;;27.55;12.93;;;;;;;3.21;100.00;100906.66;5073742;28;20036;-62
2022/12/19 15:01:59;;;;;;;;;;;;;;;3.13;100.00;100905.50;5073873;28;20070;-62
2022/12/19 15:04:29;;;;;;;25.58;11.80;;;;;;;3.09;100.00;100898.78;5073563;28;19944;-61
2022/12/19 15:06:58;;;;;;;23.92;11.82;;;;;;;3.10;100.00;100900.47;5073638;28;20089;-62
2022/12/19 15:09:24;;;;;;;29.67;14.13;;;;;;;2.99;100.00;100904.69;5073915;28;20358;-62
2022/12/19 15:14:48;;;;;;;24.30;11.93;;;;;;;2.85;100.00;100902.19;5073522;28;20482;-62
2022/12/19 15:17:16;;;;;;;22.85;12.38;;;;;;;2.80;100.00;100904.28;5073488;28;20047;-62
2022/12/19 15:19:41;;;;;;;23.38;12.85;;;;;;;2.69;100.00;100905.06;5073391;28;20029;-62
2022/12/19 15:22:07;;;;;;;25.10;12.68;;;;;;;2.66;100.00;100912.31;5073053;28;20045;-61
2022/12/19 15:24:32;;;;;;;21.67;13.02;;;;;;;2.55;100.00;100906.97;5073325;28;20071;-62
2022/12/19 15:26:59;;;;;;;21.35;12.45;;;;;;;2.55;100.00;100899.94;5073117;28;20044;-60
2022/12/19 15:29:25;;;;;;;22.30;11.48;;;;;;;2.52;100.00;100901.91;5073189;28;20158;-62
2022/12/19 15:31:51;;;;;;;23.90;11.98;;;;;;;2.45;100.00;100889.19;5071364;28;20055;-61
2022/12/19 15:34:22;;;;;;;20.58;11.25;;;;;;;2.43;100.00;100883.19;5071823;28;20081;-61
2022/12/19 15:36:49;;;;;;;25.05;11.13;;;;;;;2.36;100.00;100884.56;5072956;28;20036;-60
2022/12/19 15:39:15;;;;;;;27.48;12.80;;;;;;;2.31;100.00;100883.19;5071556;28;20036;-61
2022/12/19 15:41:41;;;;;;;23.05;11.52;;;;;;;2.27;100.00;100874.66;5072605;28;20032;-63
2022/12/19 15:44:17;;;;;;;28.52;11.70;;;;;;;2.21;100.00;100869.81;5073068;28;20036;-63
2022/12/19 15:46:43;;;;;;;25.15;13.05;;;;;;;2.18;100.00;100867.41;5072998;28;20044;-63
2022/12/19 15:49:19;;;;;;;21.73;11.32;;;;;;;2.15;100.00;100864.97;5072698;28;20036;-56
2022/12/19 15:51:45;;;;;;;24.00;12.55;;;;;;;2.08;100.00;100871.59;5072330;28;20037;-54
2022/12/19 15:54:11;;;;;;;24.85;10.63;;;;;;;2.04;100.00;100870.13;5072703;28;20094;-61
2022/12/19 15:56:56;;;;;;;22.65;10.68;;;;;;;1.98;100.00;100867.91;5072604;28;20044;-62
2022/12/19 15:59:31;;;;;;;20.38;11.63;;;;;;;1.90;100.00;100855.31;5072516;28;20080;-63
2022/12/19 16:01:57;;;;;;;19.42;9.60;;;;;;;1.89;100.00;100866.72;5072389;28;20040;-63
2022/12/19 16:04:24;;;;;;;17.52;9.73;;;;;;;1.82;100.00;100861.03;5072508;28;20052;-64
2022/12/19 16:06:49;;;;;;;17.13;9.43;;;;;;;1.74;100.00;100854.63;5071931;28;20028;-63
2022/12/19 16:09:22;;;;;;;20.65;10.75;;;;;;;1.73;100.00;100850.31;5072516;28;20042;-63
2022/12/19 16:11:49;;;;;;;16.17;10.27;;;;;;;1.69;100.00;100849.66;5070745;28;20086;-63
2022/12/19 16:14:15;;;;;;;25.48;11.50;;;;;;;1.67;100.00;100854.19;5072514;28;20032;-62
2022/12/19 16:16:41;;;;;;;20.80;10.38;;;;;;;1.57;100.00;100856.59;5072429;28;20115;-63
2022/12/19 16:19:27;;;;;;;21.88;9.77;;;;;;;1.56;100.00;100864.56;5072267;28;20059;-63
2022/12/19 16:21:53;;;;;;;21.58;10.02;;;;;;;1.52;100.00;100861.31;5072041;28;20032;-62
2022/12/19 16:24:19;;;;;;;19.35;10.68;;;;;;;1.50;100.00;100862.31;5072163;28;20504;-63
2022/12/19 16:26:56;;;;;;;23.40;10.77;;;;;;;1.51;100.00;100866.66;5072185;28;20041;-62
2022/12/19 16:29:25;;;;;;;19.33;9.83;;;;;;;1.41;100.00;100860.31;5072071;28;20115;-63
2022/12/19 16:31:51;;;;;;;18.23;9.85;;;;;;;1.36;100.00;100868.47;5070550;28;20060;-61
2022/12/19 16:34:20;;;;;;;18.13;10.02;;;;;;;1.28;100.00;100861.09;5072150;28;20120;-61
2022/12/19 16:36:46;;;;;;;21.98;10.25;;;;;;;1.07;100.00;100873.81;5072007;28;20414;-63
2022/12/19 16:39:11;;;;;;;15.02;10.27;;;;;;;1.13;100.00;100875.22;5070864;28;20048;-62
2022/12/19 16:41:37;;;;;;;21.52;9.75;;;;;;;1.20;100.00;100871.25;5071644;28;20504;-63
2022/12/19 16:44:03;;;;;;;22.73;11.77;;;;;;;1.21;100.00;100877.34;5071212;28;20106;-67
2022/12/19 16:46:32;;;;;;;26.20;10.23;;;;;;;1.17;100.00;100879.31;5072054;28;20044;-67
2022/12/19 16:48:59;;;;;;;21.77;11.63;;;;;;;1.19;100.00;100871.38;5086746;28;20408;-67
2022/12/19 16:51:26;;;;;;;24.30;10.85;;;;;;;1.08;100.00;100874.66;5071062;28;20028;-68
2022/12/19 16:53:55;;;;;;;17.70;10.07;;;;;;;1.10;100.00;100880.63;5071730;28;20036;-68
2022/12/19 16:56:31;;;;;;;24.17;11.77;;;;;;;1.11;100.00;100882.34;5071626;28;20094;-68
2022/12/19 16:58:59;;;;;;;21.00;10.65;;;;;;;1.11;100.00;100884.09;5071693;28;20056;-68
2022/12/19 17:01:25;;;;;;;23.90;10.68;;;;;;;1.11;100.00;100881.47;5071467;28;20502;-65
2022/12/19 17:03:53;;;;;;;20.20;10.88;;;;;;;1.09;100.00;100884.22;5071511;28;20060;-66
2022/12/19 17:06:20;;;;;;;24.17;13.27;;;;;;;1.09;100.00;100887.69;5071605;28;20040;-66
2022/12/19 17:08:46;;;;;;;22.65;11.57;;;;;;;1.08;100.00;100882.53;5071473;28;20036;-66